Meteo Giornale » Osservazioni meteo Stati Uniti (USA) » Kansas City Downtown
ore: 08:54 - Osservazioni Meteo Kansas City Downtown
Lat. 39° 7' N Lon. 94° 35' W Alt. 231 metri s.l.m.
29 °C
Sereno
Temp. 24 Ore
26 °C
38 °C
Sud/Sud-Ovest
14.8 Km/h
Dew point 18 °C
Umidità 51 %
Visibilità 10 Km
Il sole sorge alle ore 06:47
Il sole tramonta alle ore 19:49
| Data e Ora | Cielo e Fenomeni | T °C | DP °C | Um. % | Pres. hPa | Vis. km | Vento km/h | |
|---|---|---|---|---|---|---|---|---|
| Oggi h: 08:54 | Sereno | 29 | 18 | 51 | 1016 | 10 | S/SO 14.8 | |
| Oggi h: 07:54 | Sereno | 27 | 18 | 57 | 1016 | 10 | S 11.1 | |
| Oggi h: 06:54 | Sereno | 26 | 17 | 57 | 1016 | 10 | N 0 | |
| Oggi h: 05:54 | Sereno | 26 | 17 | 57 | 1015 | 10 | SO 9.3 | |
| Oggi h: 04:54 | Sereno | 26 | 17 | 57 | 1015 | 10 | SO 9.3 | |
| Oggi h: 03:54 | Sereno | 26 | 19 | 65 | 1014 | 10 | N 0 | |
| Oggi h: 02:54 | Sereno | 27 | 19 | 61 | 1014 | 10 | N 0 | |
| Oggi h: 01:54 | Sereno | 27 | 16 | 50 | 1014 | 10 | N 0 | |
| Oggi h: 00:54 | Sereno | 29 | 16 | 45 | 1015 | 10 | S/SO 11.1 | |
| Ieri h: 23:54 | Sereno | 28 | 16 | 48 | 1014 | 10 | S/SO 11.1 | |
| Ieri h: 22:54 | Sereno | 30 | 17 | 45 | 1014 | 10 | S/SO 16.7 | |
| Ieri h: 21:54 | Sereno | 33 | 16 | 36 | 1013 | 10 | S 16.7 | |
| Ieri h: 20:54 | Sereno | 33 | 17 | 38 | 1013 | 10 | S 11.1 | |
| Ieri h: 19:54 | Sereno | 33 | 17 | 38 | 1012 | 10 | S/SO 11.1 | |
| Ieri h: 18:54 | Sereno | 35 | 18 | 36 | 1012 | 10 | S/SO 14.8 | |
| Ieri h: 17:54 | Sereno | 37 | 17 | 30 | 1012 | 10 | S 20.3 | |
| Ieri h: 16:54 | Sereno | 38 | 18 | 31 | 1012 | 10 | S/SO 13 | |
| Ieri h: 15:54 | Sereno | 38 | 18 | 31 | 1012 | 10 | O/SO 18.5 | |
| Ieri h: 14:54 | Sereno | 38 | 19 | 33 | 1012 | 10 | SO 24 | |
| Ieri h: 13:54 | Sereno | 37 | 19 | 35 | 1013 | 10 | S/SO 22.2 | |
| Ieri h: 12:54 | Sereno | 34 | 18 | 38 | 1014 | 10 | S/SO 29.6 | |
| Ieri h: 11:54 | Sereno | 33 | 18 | 41 | 1014 | 10 | O/SO 18.5 | |
| Ieri h: 10:54 | Sereno | 33 | 18 | 41 | 1014 | 10 | SO 20.3 | |
| Ieri h: 09:54 | Sereno | 31 | 18 | 45 | 1014 | 10 | SO 20.3 | |



